Aeroporto :
LOGIN :

Iscrizione | Disclaimer

   EN    FR    IT 

 










Sommario :    VFR   VFR Marginale   IFR   IFR Intensivo   IFR Molto Intensivo
Visibilità : 
Base nubi : 
>= 8 km
>= 3000ft
5 / 8 km
1000 / 3000 ft
1500m / 5 km
500 / 1000 ft
800 / 1500m
200 / 500 ft
< 800m
< 200 ft
Simboli :   Temporali  Nebbia  Neve Forte  Precipitazioni Forti  Vento > 20 kt
SIGMETs :   Varie  Temporali  Ghiacco  Turbolenza  Onda orograficha  Ceneri Vulcaniche







- Altitudine del aeroporto : 885 ft
- Codice IATA : BAS
- Carte del aeroporto


LFSB - Bale-Mulhouse

ULTIMO METAR :
  • 211930Z VRB02KT CAVOK 14/11 Q1015 NOSIG

METARs OBSOLETI :
  • 211900Z VRB02KT CAVOK 17/11 Q1015 NOSIG
  • 211830Z VRB03KT CAVOK 17/11 Q1015 NOSIG
  • 211800Z 06005KT 030V110 CAVOK 20/11 Q1015 NOSIG
  • 211730Z 01003KT CAVOK 20/12 Q1015 NOSIG
  • 211700Z 34004KT CAVOK 22/11 Q1015 NOSIG
  • 211630Z 36005KT 330V040 CAVOK 24/11 Q1015 NOSIG

TAF TAF LFSB
Valido dal 21 a 18 ore il 22 a 18 ore UTC


211700Z 2118/2218 02005KT CAVOK
PROB40
TEMPO 2216/2218 FEW070TCU
Met : +33 3 89 90 31 11
Nessun NOTAM noto per questo aeroporto.



MetMap, La meteo Aeronautica in un colpo d'occhio ! - Copyright ORBIFLY Dicembre 2007 - Disclaimer

ORBIFLY MET'MAP TEAM :

Programmazione e sviluppo : Alexandra Zaïnal
Concezione e sviluppo : Baudouin d'Aumeries
Co-Programmazione e sviluppo : Marc-Olivier Méhu
Supporto tecnico e logistico : Manuel Goepfert
Aiuto per la traduzione : Arnaldo La Scala

Contatto : metmap@orbifly.com




FONTI E CREDITI :

   NOAA